Time;durP1;ratioP1;P1;durP2;ratioP2;P2;SDS_P1;SDS_P2;PMS_P1;PMS_P2;Temp;Humidity;BMP_temperature;BMP_pressure;BME280_temperature;BME280_humidity;BME280_pressure;Samples;Min_cycle;Max_cycle;Signal;HPM_P1;HPM_P2
2023/07/02 00:01:37;;;;;;;9.38;6.63;;;;;;;20.17;84.04;94390.19;5069541;28;20203;-61
2023/07/02 00:04:03;;;;;;;7.25;6.03;;;;;;;20.16;84.33;94409.19;5067886;28;20206;-62
2023/07/02 00:06:33;;;;;;;8.32;6.85;;;;;;;20.02;84.39;94400.84;5069689;28;20354;-62
2023/07/02 00:09:00;;;;;;;7.43;6.70;;;;;;;19.93;84.90;94398.16;5068975;28;20206;-61
2023/07/02 00:11:27;;;;;;;7.75;6.53;;;;;;;19.82;85.14;94400.78;5069292;28;20295;-61
2023/07/02 00:13:53;;;;;;;8.57;6.40;;;;;;;19.90;85.35;94388.91;5068760;28;20211;-63
2023/07/02 00:16:20;;;;;;;7.13;6.43;;;;;;;19.99;85.08;94389.94;5069748;28;20228;-62
2023/07/02 00:18:52;;;;;;;7.60;6.60;;;;;;;19.84;85.15;94386.81;5069329;28;20296;-63
2023/07/02 00:21:19;;;;;;;7.63;6.13;;;;;;;19.78;85.64;94381.38;5068589;28;20206;-63
2023/07/02 00:23:45;;;;;;;7.15;6.47;;;;;;;19.86;85.57;94384.13;5068477;28;20201;-62
2023/07/02 00:26:12;;;;;;;8.23;6.18;;;;;;;19.79;85.74;94386.41;5068710;28;20237;-61
2023/07/02 00:28:39;;;;;;;6.85;6.07;;;;;;;19.72;86.22;94389.56;5069618;28;20255;-62
2023/07/02 00:31:05;;;;;;;8.65;6.03;;;;;;;19.73;85.91;94397.19;5066288;28;20226;-63
2023/07/02 00:33:33;;;;;;;6.93;6.18;;;;;;;19.73;86.27;94396.38;5068595;28;20247;-62
2023/07/02 00:36:01;;;;;;;8.32;6.95;;;;;;;19.66;86.67;94404.59;5068628;28;20284;-62
2023/07/02 00:38:28;;;;;;;7.22;6.53;;;;;;;19.66;85.76;94412.31;5068408;28;20301;-62
2023/07/02 00:40:54;;;;;;;9.20;6.53;;;;;;;19.74;85.59;94408.31;5067975;28;20271;-62
2023/07/02 00:43:21;;;;;;;8.77;7.00;;;;;;;19.60;86.14;94405.06;5068128;28;20233;-63
2023/07/02 00:45:48;;;;;;;9.82;6.05;;;;;;;19.58;85.77;94417.25;5068096;28;20737;-62
2023/07/02 00:48:15;;;;;;;7.70;7.00;;;;;;;19.63;85.39;94422.88;5068798;28;20220;-62
2023/07/02 00:50:42;;;;;;;6.85;6.00;;;;;;;19.60;85.80;94424.88;5067958;28;20202;-62
2023/07/02 00:53:10;;;;;;;6.45;5.95;;;;;;;19.55;86.13;94419.28;5067987;28;20294;-62
2023/07/02 00:55:36;;;;;;;15.73;6.60;;;;;;;19.62;85.96;94426.38;5067581;28;20234;-62
2023/07/02 00:58:03;;;;;;;7.47;6.72;;;;;;;19.62;86.56;94423.81;5068848;28;20206;-62
2023/07/02 01:00:30;;;;;;;7.22;5.55;;;;;;;19.77;85.63;94411.47;5067140;28;20599;-62
2023/07/02 01:02:59;;;;;;;7.55;5.90;;;;;;;19.87;85.19;94407.19;5067965;28;20202;-62
2023/07/02 01:05:32;;;;;;;7.28;6.25;;;;;;;19.97;83.59;94404.72;5067878;28;20198;-62
2023/07/02 01:07:58;;;;;;;9.35;5.97;;;;;;;19.89;83.61;94395.00;5068149;28;20210;-62
2023/07/02 01:10:26;;;;;;;7.32;5.93;;;;;;;19.94;83.64;94404.97;5067320;28;20226;-62
2023/07/02 01:12:54;;;;;;;6.60;5.95;;;;;;;19.88;83.87;94402.88;5066111;28;20252;-61
2023/07/02 01:15:21;;;;;;;5.68;5.18;;;;;;;20.11;82.78;94388.94;5067636;28;20230;-62
2023/07/02 01:17:48;;;;;;;6.32;5.90;;;;;;;20.08;83.20;94390.94;5067982;28;20650;-62
2023/07/02 01:20:16;;;;;;;6.78;5.88;;;;;;;20.05;82.93;94397.16;5067871;28;20681;-62
2023/07/02 01:22:43;;;;;;;6.18;5.65;;;;;;;20.07;83.58;94394.44;5066872;28;20299;-62
2023/07/02 01:25:10;;;;;;;9.10;6.25;;;;;;;20.12;82.86;94393.16;5067887;28;20676;-62
2023/07/02 01:27:37;;;;;;;6.72;5.47;;;;;;;20.21;82.83;94382.09;5067470;28;20233;-62
2023/07/02 01:30:04;;;;;;;7.85;5.63;;;;;;;20.38;81.88;94362.66;5067352;28;20761;-60
2023/07/02 01:32:30;;;;;;;8.45;6.22;;;;;;;20.31;81.26;94367.47;5066698;28;20214;-63
2023/07/02 01:34:58;;;;;;;6.43;5.88;;;;;;;20.06;82.45;94378.16;5068363;28;20222;-62
2023/07/02 01:37:26;;;;;;;7.40;6.20;;;;;;;19.84;84.16;94367.94;5066822;28;20252;-62
2023/07/02 01:39:53;;;;;;;7.55;6.70;;;;;;;19.76;85.03;94360.03;5067894;28;20716;-62
2023/07/02 01:42:20;;;;;;;6.53;6.03;;;;;;;19.73;85.23;94373.16;5066832;28;20711;-62
2023/07/02 01:44:49;;;;;;;6.72;5.80;;;;;;;19.72;84.95;94374.09;5067719;28;20226;-62
2023/07/02 01:47:16;;;;;;;6.55;6.05;;;;;;;19.97;83.01;94371.19;5067111;28;20221;-62
2023/07/02 01:49:43;;;;;;;7.10;4.95;;;;;;;20.01;82.82;94372.59;5067354;28;20217;-62
2023/07/02 01:52:10;;;;;;;6.93;5.40;;;;;;;19.97;83.19;94379.75;5065582;28;20302;-61
2023/07/02 01:54:38;;;;;;;8.10;6.30;;;;;;;19.67;83.32;94388.19;5067494;28;20645;-63
2023/07/02 01:57:05;;;;;;;7.47;6.47;;;;;;;19.46;83.95;94382.13;5067051;28;20249;-61
2023/07/02 01:59:32;;;;;;;6.65;5.70;;;;;;;19.36;84.31;94378.63;5066931;28;20218;-62
2023/07/02 02:01:59;;;;;;;7.68;5.85;;;;;;;19.24;85.51;94353.84;5066098;28;20659;-62
2023/07/02 02:04:25;;;;;;;11.02;5.90;;;;;;;19.02;85.97;94340.06;5067183;28;20198;-61
2023/07/02 02:06:52;;;;;;;9.00;6.68;;;;;;;18.73;87.67;94349.22;5066794;28;20221;-61
2023/07/02 02:09:19;;;;;;;10.90;8.13;;;;;;;18.83;87.68;94355.28;5066973;28;20194;-63
2023/07/02 02:11:49;;;;;;;7.00;6.38;;;;;;;18.84;87.32;94353.53;5065187;28;20210;-62
2023/07/02 02:14:16;;;;;;;8.80;7.07;;;;;;;18.96;86.92;94361.16;5067150;28;20299;-64
2023/07/02 02:16:45;;;;;;;9.85;7.25;;;;;;;19.12;87.29;94365.09;5066410;28;20291;-61
2023/07/02 02:19:12;;;;;;;8.60;5.97;;;;;;;19.24;87.34;94364.97;5066582;28;20198;-61
2023/07/02 02:21:39;;;;;;;7.72;6.43;;;;;;;19.17;86.92;94356.06;5066673;28;20209;-61
2023/07/02 02:24:06;;;;;;;7.82;6.50;;;;;;;19.48;85.68;94351.09;5065419;28;20226;-61
2023/07/02 02:26:33;;;;;;;9.85;6.93;;;;;;;19.35;86.18;94353.78;5064932;28;20219;-61
2023/07/02 02:29:01;;;;;;;9.95;7.65;;;;;;;19.18;86.80;94349.97;5066500;28;20276;-63
2023/07/02 02:31:28;;;;;;;8.43;5.65;;;;;;;19.17;86.86;94350.09;5065348;28;20194;-62
2023/07/02 02:33:55;;;;;;;14.27;6.93;;;;;;;19.03;87.71;94341.72;5066571;28;20225;-61
2023/07/02 02:36:21;;;;;;;12.23;7.68;;;;;;;18.72;88.69;94334.72;5065627;28;20221;-61
2023/07/02 02:38:48;;;;;;;12.95;6.38;;;;;;;18.50;90.25;94339.84;5066769;28;20236;-60
2023/07/02 02:41:15;;;;;;;15.70;7.05;;;;;;;18.28;91.23;94333.75;5064464;28;20283;-63
2023/07/02 02:43:42;;;;;;;18.60;7.93;;;;;;;18.31;91.18;94336.06;5066040;28;20199;-62
2023/07/02 02:46:10;;;;;;;12.32;7.18;;;;;;;18.29;91.61;94340.53;5064854;28;20242;-62
2023/07/02 02:48:37;;;;;;;9.52;6.57;;;;;;;18.40;91.04;94354.31;5064101;28;20198;-62
2023/07/02 02:51:04;;;;;;;8.13;6.80;;;;;;;18.36;90.80;94346.81;5064271;28;20727;-61
2023/07/02 02:53:31;;;;;;;10.90;7.20;;;;;;;18.34;90.37;94358.97;5064089;28;21438;-62
2023/07/02 02:55:57;;;;;;;9.80;7.32;;;;;;;18.62;89.40;94347.47;5065979;28;20234;-62
2023/07/02 02:58:24;;;;;;;8.45;7.32;;;;;;;18.50;89.46;94353.53;5066361;28;20264;-63
2023/07/02 03:00:51;;;;;;;8.40;7.60;;;;;;;18.51;89.37;94360.31;5065829;28;20284;-62
2023/07/02 03:03:20;;;;;;;9.07;7.30;;;;;;;18.54;89.20;94366.97;5065668;28;20263;-63
2023/07/02 03:05:48;;;;;;;10.38;7.85;;;;;;;18.59;88.69;94359.69;5065303;28;20194;-62
2023/07/02 03:08:15;;;;;;;9.65;7.65;;;;;;;18.64;87.24;94357.63;5066499;28;20199;-61
2023/07/02 03:10:42;;;;;;;8.32;6.88;;;;;;;18.60;87.52;94344.19;5064234;28;20727;-62
2023/07/02 03:13:09;;;;;;;14.75;7.75;;;;;;;18.64;87.18;94349.91;5063199;28;21341;-62
2023/07/02 03:15:36;;;;;;;13.63;7.50;;;;;;;18.71;87.79;94347.69;5063530;28;20271;-62
2023/07/02 03:18:02;;;;;;;8.60;7.53;;;;;;;18.76;87.41;94343.03;5064422;28;20230;-62
2023/07/02 03:20:30;;;;;;;7.97;6.95;;;;;;;19.06;85.10;94360.41;5065207;28;20293;-62
2023/07/02 03:22:57;;;;;;;12.25;7.30;;;;;;;18.86;86.63;94373.06;5062865;28;20203;-62
2023/07/02 03:25:24;;;;;;;25.70;16.95;;;;;;;18.90;87.09;94387.34;5065645;28;20228;-63
2023/07/02 03:27:50;;;;;;;16.95;10.88;;;;;;;19.26;86.33;94382.88;5062638;28;20532;-63
2023/07/02 03:30:17;;;;;;;19.25;9.75;;;;;;;19.40;85.70;94379.22;5066822;28;20247;-63
2023/07/02 03:32:43;;;;;;;12.98;7.13;;;;;;;19.58;84.26;94367.47;5065525;28;20199;-63
2023/07/02 03:35:10;;;;;;;8.77;7.15;;;;;;;19.57;84.18;94366.66;5067042;28;20295;-62
2023/07/02 03:37:41;;;;;;;10.48;7.63;;;;;;;19.73;83.75;94380.91;5065496;28;20231;-63
2023/07/02 03:40:09;;;;;;;23.60;15.82;;;;;;;19.83;83.48;94386.94;5066288;28;20225;-63
2023/07/02 03:42:36;;;;;;;30.98;19.50;;;;;;;20.05;82.68;94381.69;5065792;28;20635;-64
2023/07/02 03:45:03;;;;;;;17.52;13.25;;;;;;;20.17;82.30;94375.53;5066424;28;20226;-62
2023/07/02 03:47:30;;;;;;;12.60;8.27;;;;;;;20.27;81.90;94375.59;5065258;28;20229;-62
2023/07/02 03:49:56;;;;;;;8.35;7.63;;;;;;;20.27;81.85;94371.25;5066375;28;20225;-63
2023/07/02 03:52:23;;;;;;;10.20;7.43;;;;;;;20.48;80.08;94367.88;5065764;28;20662;-62
2023/07/02 03:54:51;;;;;;;13.13;7.07;;;;;;;20.54;79.94;94364.78;5065919;28;20726;-61
2023/07/02 03:57:17;;;;;;;8.40;7.40;;;;;;;20.71;79.43;94356.44;5065389;28;20202;-63
2023/07/02 03:59:44;;;;;;;9.60;7.78;;;;;;;20.83;79.01;94357.97;5066157;28;20217;-62
2023/07/02 04:02:11;;;;;;;11.60;7.85;;;;;;;20.94;78.24;94365.63;5066128;28;20230;-62
2023/07/02 04:04:38;;;;;;;13.10;7.85;;;;;;;20.88;77.70;94371.31;5066161;28;20238;-62
2023/07/02 04:07:05;;;;;;;14.68;7.85;;;;;;;20.70;78.84;94368.53;5065586;28;20211;-61
2023/07/02 04:09:32;;;;;;;11.20;8.80;;;;;;;20.60;79.09;94367.66;5066024;28;20664;-62
2023/07/02 04:12:01;;;;;;;10.60;7.40;;;;;;;20.49;79.63;94380.66;5065523;28;20194;-61
2023/07/02 04:14:27;;;;;;;9.30;7.65;;;;;;;20.38;79.91;94373.78;5066827;28;20640;-62
2023/07/02 04:16:54;;;;;;;11.02;7.80;;;;;;;20.40;80.32;94388.34;5065731;28;20260;-62
2023/07/02 04:19:21;;;;;;;10.68;8.45;;;;;;;20.61;79.75;94397.69;5065000;28;20692;-62
2023/07/02 04:21:47;;;;;;;8.77;7.00;;;;;;;20.71;79.51;94401.16;5065499;28;20214;-62
2023/07/02 04:24:14;;;;;;;12.23;7.28;;;;;;;20.61;79.75;94397.69;5064761;28;20198;-62
2023/07/02 04:26:42;;;;;;;9.77;7.30;;;;;;;20.53;80.38;94392.38;5065959;28;20226;-63
2023/07/02 04:29:11;;;;;;;9.50;7.63;;;;;;;20.53;80.45;94399.28;5065486;28;20206;-62
2023/07/02 04:31:37;;;;;;;8.75;7.60;;;;;;;20.58;79.88;94410.03;5065411;28;20285;-61
2023/07/02 04:34:05;;;;;;;12.27;7.63;;;;;;;20.54;80.35;94408.69;5063609;28;20202;-62
2023/07/02 04:36:32;;;;;;;9.93;7.28;;;;;;;20.55;80.68;94410.28;5066327;28;20752;-62
2023/07/02 04:38:59;;;;;;;11.07;8.95;;;;;;;20.64;79.98;94423.25;5067649;28;20283;-63
2023/07/02 04:41:25;;;;;;;23.15;15.02;;;;;;;20.67;79.58;94419.59;5068697;28;20257;-63
2023/07/02 04:43:52;;;;;;;15.95;11.88;;;;;;;20.72;79.42;94425.22;5067614;28;20229;-62
2023/07/02 04:46:20;;;;;;;21.00;14.80;;;;;;;20.82;79.52;94431.22;5066848;28;20202;-62
2023/07/02 04:48:47;;;;;;;11.13;8.70;;;;;;;20.81;79.46;94423.59;5065197;28;20264;-62
2023/07/02 04:51:13;;;;;;;13.65;10.90;;;;;;;20.74;80.19;94425.09;5067531;28;20609;-62
2023/07/02 04:53:40;;;;;;;13.45;9.50;;;;;;;20.78;80.08;94426.47;5066618;28;20264;-61
2023/07/02 04:56:07;;;;;;;14.95;9.77;;;;;;;20.71;80.31;94433.91;5066796;28;20210;-61
2023/07/02 04:58:34;;;;;;;16.10;10.25;;;;;;;20.84;79.96;94436.25;5067447;28;20679;-61
2023/07/02 05:01:00;;;;;;;10.10;8.50;;;;;;;20.89;79.64;94429.78;5068176;28;20645;-64
2023/07/02 05:03:28;;;;;;;16.50;8.90;;;;;;;20.96;79.31;94435.25;5067685;28;20194;-64
2023/07/02 05:05:55;;;;;;;14.13;8.65;;;;;;;21.11;78.86;94431.34;5066840;28;20202;-63
2023/07/02 05:08:22;;;;;;;10.82;7.88;;;;;;;21.28;77.74;94429.97;5067080;28;20293;-63
2023/07/02 05:10:49;;;;;;;11.77;8.73;;;;;;;21.47;76.74;94440.38;5067447;28;20241;-64
2023/07/02 05:13:16;;;;;;;8.73;7.85;;;;;;;21.69;75.42;94441.91;5067074;28;20202;-63
2023/07/02 05:15:42;;;;;;;9.82;7.65;;;;;;;21.56;75.95;94442.13;5067832;28;20584;-63
2023/07/02 05:18:09;;;;;;;11.80;8.43;;;;;;;21.49;76.31;94446.22;5066207;28;20551;-63
2023/07/02 05:20:37;;;;;;;8.90;7.90;;;;;;;21.66;75.79;94444.75;5067869;28;20272;-63
2023/07/02 05:23:04;;;;;;;11.48;8.43;;;;;;;21.50;75.59;94441.88;5067881;28;20221;-63
2023/07/02 05:25:32;;;;;;;10.07;8.00;;;;;;;21.41;76.67;94440.06;5067731;28;20221;-63
2023/07/02 05:27:59;;;;;;;11.85;8.43;;;;;;;21.26;76.83;94437.03;5066179;28;20234;-63
2023/07/02 05:30:26;;;;;;;12.57;9.50;;;;;;;20.91;78.82;94443.38;5067217;28;20667;-62
2023/07/02 05:32:52;;;;;;;14.30;8.95;;;;;;;20.77;79.58;94441.16;5067367;28;20210;-62
2023/07/02 05:35:19;;;;;;;12.38;9.13;;;;;;;20.94;79.54;94448.28;5067580;28;20723;-62
2023/07/02 05:37:47;;;;;;;11.38;8.20;;;;;;;21.04;79.32;94448.31;5066257;28;20233;-63
2023/07/02 05:40:14;;;;;;;13.13;7.95;;;;;;;21.27;77.38;94454.19;5067125;28;20256;-62
2023/07/02 05:42:42;;;;;;;13.77;8.68;;;;;;;21.23;77.21;94455.38;5066924;28;20308;-63
2023/07/02 05:45:10;;;;;;;12.27;8.68;;;;;;;21.31;77.70;94463.28;5066937;28;20297;-63
2023/07/02 05:47:36;;;;;;;12.85;8.23;;;;;;;21.63;76.59;94457.94;5066252;28;20245;-62
2023/07/02 05:50:03;;;;;;;11.45;8.77;;;;;;;21.49;75.78;94456.56;5067633;28;20238;-63
2023/07/02 05:52:30;;;;;;;12.52;9.13;;;;;;;21.40;76.26;94459.94;5067161;28;20222;-63
2023/07/02 05:54:58;;;;;;;13.93;8.27;;;;;;;21.28;76.91;94468.75;5067794;28;20260;-63
2023/07/02 05:57:24;;;;;;;15.70;9.18;;;;;;;21.35;76.44;94459.50;5065573;28;20297;-63
2023/07/02 05:59:51;;;;;;;10.27;8.10;;;;;;;21.64;75.79;94464.75;5064488;28;20226;-64
2023/07/02 06:02:17;;;;;;;13.63;9.02;;;;;;;21.85;75.36;94457.72;5065466;28;20254;-62
2023/07/02 06:04:44;;;;;;;11.55;8.80;;;;;;;22.33;74.55;94456.94;5065322;28;20283;-63
2023/07/02 06:07:11;;;;;;;14.30;8.20;;;;;;;23.24;71.63;94458.16;5065473;28;20260;-62
2023/07/02 06:09:37;;;;;;;11.57;8.65;;;;;;;24.20;68.47;94460.22;5064317;28;20284;-63
2023/07/02 06:12:06;;;;;;;10.90;8.93;;;;;;;24.96;65.27;94447.56;5065342;28;20194;-63
2023/07/02 06:14:33;;;;;;;13.93;8.55;;;;;;;25.13;63.94;94447.63;5067446;28;20284;-62
2023/07/02 06:17:00;;;;;;;11.85;8.52;;;;;;;24.92;63.94;94435.81;5067374;28;20226;-63
2023/07/02 06:19:27;;;;;;;10.32;8.98;;;;;;;24.76;64.68;94435.69;5062811;28;20226;-62
2023/07/02 06:21:54;;;;;;;10.77;8.68;;;;;;;24.69;64.73;94430.31;5066200;28;20388;-62
2023/07/02 06:24:20;;;;;;;10.57;8.10;;;;;;;24.48;64.86;94421.22;5066363;28;20289;-61
2023/07/02 06:26:47;;;;;;;10.00;8.80;;;;;;;24.30;64.54;94427.22;5066700;28;20688;-61
2023/07/02 06:29:15;;;;;;;12.65;10.35;;;;;;;23.58;66.67;94435.91;5065695;28;20683;-61
2023/07/02 06:31:42;;;;;;;13.43;9.18;;;;;;;23.38;68.09;94439.53;5066932;28;20234;-61
2023/07/02 06:34:08;;;;;;;10.23;8.77;;;;;;;23.41;68.54;94437.47;5065268;28;20280;-62
2023/07/02 06:36:35;;;;;;;11.07;8.50;;;;;;;23.76;67.72;94435.16;5065835;28;20202;-61
2023/07/02 06:39:02;;;;;;;13.23;8.02;;;;;;;24.42;65.96;94431.25;5065895;28;20249;-61
2023/07/02 06:41:28;;;;;;;12.95;9.20;;;;;;;24.83;64.86;94425.50;5066724;28;20218;-62
2023/07/02 06:43:55;;;;;;;12.05;8.75;;;;;;;25.69;61.53;94424.50;5066296;28;20233;-62
2023/07/02 06:46:23;;;;;;;12.25;8.40;;;;;;;26.39;58.43;94414.53;5066654;28;20198;-61
2023/07/02 06:48:50;;;;;;;12.02;8.70;;;;;;;26.27;56.98;94407.97;5063864;28;20676;-62
2023/07/02 06:51:20;;;;;;;14.57;9.13;;;;;;;25.80;59.60;94419.97;5066114;28;20233;-61
2023/07/02 06:53:47;;;;;;;12.75;9.05;;;;;;;25.64;59.61;94416.34;5065520;28;20652;-61
2023/07/02 06:56:14;;;;;;;10.52;8.88;;;;;;;25.36;60.11;94425.31;5066492;28;20644;-62
2023/07/02 06:58:43;;;;;;;13.43;9.02;;;;;;;25.31;60.39;94437.97;5064118;28;20260;-61
2023/07/02 07:01:09;;;;;;;10.25;7.65;;;;;;;25.29;61.63;94426.91;5065865;28;20253;-61
2023/07/02 07:03:38;;;;;;;11.50;8.02;;;;;;;25.51;60.34;94431.53;5066014;28;20251;-62
2023/07/02 07:06:04;;;;;;;10.90;8.98;;;;;;;25.77;59.15;94432.31;5065995;28;20249;-63
2023/07/02 07:08:31;;;;;;;9.50;8.52;;;;;;;26.06;59.30;94431.88;5064902;28;20263;-62
2023/07/02 07:10:57;;;;;;;15.48;8.27;;;;;;;26.24;59.28;94433.53;5065840;28;20250;-62
2023/07/02 07:13:24;;;;;;;10.38;8.75;;;;;;;26.58;58.39;94430.81;5066098;28;20202;-63
2023/07/02 07:15:51;;;;;;;14.55;9.55;;;;;;;27.04;56.77;94419.69;5065302;28;20222;-62
2023/07/02 07:18:18;;;;;;;12.13;8.48;;;;;;;28.03;53.16;94421.72;5064064;28;20230;-61
2023/07/02 07:20:46;;;;;;;10.27;7.20;;;;;;;30.26;48.62;94414.69;5066042;28;20758;-63
2023/07/02 07:23:13;;;;;;;12.13;8.48;;;;;;;34.57;38.42;94407.28;5066347;28;20379;-63
2023/07/02 07:25:39;;;;;;;16.85;8.77;;;;;;;35.96;33.98;94409.41;5064885;28;20210;-63
2023/07/02 07:28:06;;;;;;;12.48;9.23;;;;;;;35.78;34.58;94411.03;5064627;28;20201;-62
2023/07/02 07:30:33;;;;;;;14.95;8.45;;;;;;;34.13;37.33;94412.44;5066473;28;20226;-62
2023/07/02 07:32:59;;;;;;;14.40;9.25;;;;;;;33.35;38.83;94408.25;5065491;28;20198;-62
2023/07/02 07:35:26;;;;;;;11.65;8.05;;;;;;;32.90;39.45;94405.50;5065759;28;20268;-63
2023/07/02 07:37:54;;;;;;;8.82;8.00;;;;;;;32.03;41.54;94410.81;5061869;28;20267;-62
2023/07/02 07:40:21;;;;;;;13.15;8.93;;;;;;;31.39;42.49;94405.91;5065074;28;20233;-63
2023/07/02 07:42:47;;;;;;;11.70;8.73;;;;;;;31.59;42.33;94406.78;5063675;28;20655;-62
2023/07/02 07:45:14;;;;;;;20.13;8.93;;;;;;;33.13;39.60;94397.97;5065485;28;20691;-61
2023/07/02 07:47:41;;;;;;;10.60;9.25;;;;;;;33.93;37.17;94401.16;5062898;28;20655;-62
2023/07/02 07:50:10;;;;;;;9.65;8.57;;;;;;;34.23;37.64;94396.13;5064600;28;20205;-62
2023/07/02 07:52:38;;;;;;;14.50;8.55;;;;;;;35.46;35.33;94412.19;5065530;28;20309;-63
2023/07/02 07:55:07;;;;;;;9.05;8.23;;;;;;;36.87;33.25;94408.31;5066084;28;20299;-61
2023/07/02 07:57:36;;;;;;;9.63;8.43;;;;;;;36.70;31.48;94413.44;5064503;28;20975;-62
2023/07/02 08:00:06;;;;;;;9.27;8.38;;;;;;;37.73;30.61;94403.09;5065959;28;20358;-64
2023/07/02 08:02:32;;;;;;;13.15;8.52;;;;;;;38.95;28.94;94400.00;5065362;28;20451;-63
2023/07/02 08:04:59;;;;;;;8.90;7.65;;;;;;;40.49;26.92;94409.69;5065238;28;20283;-62
2023/07/02 08:07:26;;;;;;;9.82;8.02;;;;;;;40.20;27.39;94411.78;5063533;28;20648;-60
2023/07/02 08:09:52;;;;;;;7.93;7.22;;;;;;;39.60;27.75;94407.31;5066140;28;20703;-63
2023/07/02 08:12:21;;;;;;;8.43;7.70;;;;;;;40.09;27.49;94404.75;5068670;28;20236;-63
2023/07/02 08:14:47;;;;;;;9.60;7.68;;;;;;;40.71;26.64;94407.75;5069314;28;20198;-64
2023/07/02 08:17:14;;;;;;;9.32;8.38;;;;;;;41.58;25.65;94409.19;5067932;28;20202;-63
2023/07/02 08:19:41;;;;;;;8.35;7.60;;;;;;;42.32;24.91;94400.16;5069281;28;20260;-62
2023/07/02 08:22:07;;;;;;;9.07;7.53;;;;;;;40.62;25.65;94409.25;5069020;28;20222;-63
2023/07/02 08:24:34;;;;;;;9.30;7.93;;;;;;;37.50;30.45;94405.78;5067951;28;20692;-62
2023/07/02 08:27:02;;;;;;;13.90;12.63;;;;;;;34.42;34.90;94397.03;5067564;28;20253;-61
2023/07/02 08:29:30;;;;;;;13.05;8.55;;;;;;;33.48;38.27;94397.69;5067423;28;20225;-64
2023/07/02 08:31:57;;;;;;;9.82;7.63;;;;;;;35.22;35.29;94399.81;5066570;28;20252;-61
2023/07/02 08:34:23;;;;;;;9.75;7.80;;;;;;;36.68;31.53;94399.63;5068219;28;20311;-62
2023/07/02 08:36:51;;;;;;;9.00;8.05;;;;;;;34.26;35.33;94398.34;5068009;28;20633;-62
2023/07/02 08:39:18;;;;;;;8.88;7.22;;;;;;;34.60;35.63;94399.75;5067094;28;20630;-61
2023/07/02 08:41:45;;;;;;;9.77;7.75;;;;;;;34.57;35.23;94392.28;5067527;28;21584;-63
2023/07/02 08:44:13;;;;;;;13.35;7.80;;;;;;;35.62;34.33;94401.06;5067973;28;20244;-63
2023/07/02 08:46:42;;;;;;;9.63;7.80;;;;;;;37.45;31.13;94405.66;5068523;28;20195;-62
2023/07/02 08:49:09;;;;;;;8.95;8.00;;;;;;;36.50;32.54;94403.16;5067165;28;20198;-62
2023/07/02 08:51:36;;;;;;;7.63;6.93;;;;;;;36.35;33.20;94393.03;5068346;28;20304;-63
2023/07/02 08:54:03;;;;;;;12.23;7.75;;;;;;;35.97;32.32;94397.78;5068627;28;20276;-64
2023/07/02 08:56:30;;;;;;;8.65;7.53;;;;;;;36.10;32.88;94394.97;5068213;28;20206;-63
2023/07/02 08:58:57;;;;;;;8.30;7.10;;;;;;;38.27;30.69;94385.03;5067208;28;20198;-64
2023/07/02 09:01:24;;;;;;;8.48;6.88;;;;;;;40.21;27.24;94384.09;5068247;28;20238;-63
2023/07/02 09:03:52;;;;;;;9.25;6.70;;;;;;;40.65;26.50;94392.78;5068697;28;20198;-63
2023/07/02 09:06:19;;;;;;;7.47;6.68;;;;;;;40.39;26.59;94388.28;5068310;28;20283;-62
2023/07/02 09:08:46;;;;;;;8.35;6.95;;;;;;;37.82;28.84;94392.94;5067007;28;20301;-63
2023/07/02 09:11:14;;;;;;;13.93;7.38;;;;;;;34.40;34.24;94391.16;5067069;28;20235;-62
2023/07/02 09:13:48;;;;;;;8.10;6.97;;;;;;;32.04;39.44;94389.56;5068711;28;20205;-61
2023/07/02 09:16:25;;;;;;;7.47;6.88;;;;;;;31.91;41.17;94386.13;5068325;28;20263;-61
2023/07/02 09:19:05;;;;;;;8.55;6.47;;;;;;;35.28;35.35;94389.22;5068071;28;20625;-63
2023/07/02 09:21:43;;;;;;;12.57;7.95;;;;;;;36.08;33.49;94381.97;5066329;28;20710;-62
2023/07/02 09:24:18;;;;;;;8.30;7.47;;;;;;;35.53;33.98;94381.22;5068068;28;20221;-63
2023/07/02 09:26:46;;;;;;;7.72;7.03;;;;;;;34.60;35.52;94381.28;5065060;28;20658;-62
2023/07/02 09:29:13;;;;;;;9.10;8.32;;;;;;;34.03;37.09;94374.34;5067866;28;20218;-63
2023/07/02 09:31:46;;;;;;;6.85;6.40;;;;;;;33.32;36.77;94377.06;5066166;28;20202;-63
2023/07/02 09:34:15;;;;;;;7.57;6.82;;;;;;;32.26;39.00;94371.84;5066557;28;20264;-63
2023/07/02 09:36:43;;;;;;;7.90;6.40;;;;;;;32.25;40.14;94375.47;5066478;28;20248;-62
2023/07/02 09:39:13;;;;;;;9.95;7.38;;;;;;;32.33;40.37;94377.94;5066028;28;20753;-63
2023/07/02 09:41:42;;;;;;;7.25;6.55;;;;;;;31.80;42.36;94382.25;5067489;28;20311;-63
2023/07/02 09:44:10;;;;;;;9.45;6.50;;;;;;;30.43;44.87;94387.22;5067744;28;20295;-62
2023/07/02 09:46:43;;;;;;;9.30;7.43;;;;;;;29.21;47.64;94382.00;5067150;28;20198;-63
2023/07/02 09:49:15;;;;;;;8.70;7.85;;;;;;;28.50;50.56;94384.16;5066535;28;20281;-63
2023/07/02 09:51:42;;;;;;;13.32;7.97;;;;;;;28.60;49.85;94373.47;5067799;28;20214;-62
2023/07/02 09:54:09;;;;;;;8.10;7.25;;;;;;;28.49;49.04;94379.09;5065881;28;20305;-63
2023/07/02 09:56:36;;;;;;;7.47;6.72;;;;;;;28.34;49.63;94374.66;5066892;28;20267;-63
2023/07/02 09:59:03;;;;;;;9.98;6.88;;;;;;;28.83;49.69;94378.66;5066032;28;20296;-64
2023/07/02 10:01:30;;;;;;;6.38;5.88;;;;;;;29.34;47.91;94371.72;5066892;28;20222;-63
2023/07/02 10:03:56;;;;;;;7.32;6.70;;;;;;;29.61;47.69;94372.88;5066737;28;20198;-63
2023/07/02 10:06:24;;;;;;;7.43;6.63;;;;;;;29.81;46.78;94367.84;5066598;28;20703;-64
2023/07/02 10:08:55;;;;;;;12.38;6.78;;;;;;;29.97;47.50;94368.41;5066763;28;20222;-60
2023/07/02 10:11:33;;;;;;;8.05;6.10;;;;;;;29.30;47.80;94368.63;5064282;28;20739;-62
2023/07/02 10:14:00;;;;;;;10.85;6.95;;;;;;;28.70;49.56;94353.13;5065955;28;20198;-62
2023/07/02 10:16:27;;;;;;;6.55;5.95;;;;;;;28.27;49.42;94360.66;5067313;28;20264;-62
2023/07/02 10:18:54;;;;;;;6.00;5.50;;;;;;;27.83;50.85;94349.22;5067114;28;20202;-63
2023/07/02 10:21:21;;;;;;;7.35;5.80;;;;;;;27.78;52.80;94342.72;5064647;28;20246;-62
2023/07/02 10:23:49;;;;;;;7.00;5.85;;;;;;;27.63;51.55;94349.69;5065508;28;20323;-62
2023/07/02 10:26:17;;;;;;;6.82;5.90;;;;;;;27.59;52.16;94343.19;5066784;28;20206;-62
2023/07/02 10:28:44;;;;;;;7.47;6.50;;;;;;;27.67;52.52;94339.72;5066803;28;20205;-63
2023/07/02 10:31:20;;;;;;;5.95;5.55;;;;;;;27.85;48.13;94337.63;5065636;28;20203;-62
2023/07/02 10:33:48;;;;;;;4.97;4.45;;;;;;;27.69;47.17;94343.78;5063742;28;20328;-62
2023/07/02 10:36:21;;;;;;;5.25;4.45;;;;;;;27.41;47.84;94340.81;5065033;28;20676;-60
2023/07/02 10:38:50;;;;;;;5.13;4.50;;;;;;;27.22;46.43;94346.41;5066074;28;20205;-62
2023/07/02 10:41:27;;;;;;;4.68;4.38;;;;;;;27.14;48.93;94337.84;5066725;28;20203;-62
2023/07/02 10:43:56;;;;;;;4.78;4.38;;;;;;;27.31;48.17;94336.78;5065546;28;20221;-62
2023/07/02 10:46:23;;;;;;;5.10;4.57;;;;;;;27.49;47.92;94337.31;5066122;28;20692;-62
2023/07/02 10:48:53;;;;;;;5.03;4.63;;;;;;;27.77;47.58;94341.09;5064629;28;20206;-63
2023/07/02 10:51:21;;;;;;;4.50;4.10;;;;;;;28.02;48.02;94338.31;5066694;28;20313;-62
2023/07/02 10:53:57;;;;;;;4.38;4.07;;;;;;;28.19;45.93;94324.16;5064575;28;20268;-63
2023/07/02 10:56:24;;;;;;;5.80;4.65;;;;;;;28.36;46.15;94336.09;5065485;28;20645;-63
2023/07/02 10:58:51;;;;;;;5.45;4.05;;;;;;;28.22;45.20;94328.22;5064795;28;20264;-63
2023/07/02 11:01:23;;;;;;;5.85;5.25;;;;;;;27.92;46.20;94332.53;5066590;28;20679;-63
2023/07/02 11:03:56;;;;;;;297.17;231.32;;;;;;;27.96;47.04;94331.19;5065052;28;20226;-64
2023/07/02 11:06:23;;;;;;;8.25;7.20;;;;;;;28.21;47.13;94327.41;5062029;28;20262;-65
2023/07/02 11:08:51;;;;;;;10.68;9.63;;;;;;;28.20;45.97;94325.81;5065937;28;20202;-64
2023/07/02 11:11:18;;;;;;;23.10;19.08;;;;;;;28.01;46.93;94326.25;5064975;28;20676;-65
2023/07/02 11:13:46;;;;;;;39.88;31.63;;;;;;;28.09;48.24;94323.56;5065908;28;20621;-65
2023/07/02 11:16:22;;;;;;;42.47;31.35;;;;;;;28.31;48.14;94317.53;5065156;28;20840;-63
2023/07/02 11:18:49;;;;;;;27.45;22.73;;;;;;;28.29;47.61;94314.28;5066055;28;20198;-63
2023/07/02 11:21:16;;;;;;;11.80;10.52;;;;;;;28.25;47.58;94326.06;5065590;28;20252;-63
2023/07/02 11:23:43;;;;;;;10.10;9.10;;;;;;;28.29;47.17;94340.41;5065664;28;20275;-61
2023/07/02 11:26:11;;;;;;;12.90;7.03;;;;;;;28.19;48.05;94345.06;5063919;28;20234;-60
2023/07/02 11:28:49;;;;;;;6.47;5.70;;;;;;;27.95;50.30;94347.84;5065995;28;20202;-60
2023/07/02 11:31:25;;;;;;;6.00;5.50;;;;;;;27.67;52.46;94352.75;5065377;28;20221;-61